sensor_id;sensor_type;location;lat;lon;timestamp;P1;durP1;ratioP1;P2;durP2;ratioP2
11287;SDS011;5700;50.996;7.044;2023-04-15T00:02:37;5.97;;;2.17;;
11287;SDS011;5700;50.996;7.044;2023-04-15T00:05:39;4.30;;;2.00;;
11287;SDS011;5700;50.996;7.044;2023-04-15T00:08:41;4.65;;;1.90;;
11287;SDS011;5700;50.996;7.044;2023-04-15T00:11:42;5.75;;;2.20;;
11287;SDS011;5700;50.996;7.044;2023-04-15T00:14:44;5.18;;;2.72;;
11287;SDS011;5700;50.996;7.044;2023-04-15T00:17:45;6.20;;;1.90;;
11287;SDS011;5700;50.996;7.044;2023-04-15T00:20:48;6.22;;;1.90;;
11287;SDS011;5700;50.996;7.044;2023-04-15T00:23:49;6.18;;;2.28;;
11287;SDS011;5700;50.996;7.044;2023-04-15T00:26:52;10.35;;;3.25;;
11287;SDS011;5700;50.996;7.044;2023-04-15T00:29:54;11.93;;;3.83;;
11287;SDS011;5700;50.996;7.044;2023-04-15T00:32:56;10.60;;;2.95;;
11287;SDS011;5700;50.996;7.044;2023-04-15T00:35:59;6.05;;;2.47;;
11287;SDS011;5700;50.996;7.044;2023-04-15T00:39:00;5.63;;;2.33;;
11287;SDS011;5700;50.996;7.044;2023-04-15T00:42:03;3.05;;;1.70;;
11287;SDS011;5700;50.996;7.044;2023-04-15T00:45:05;5.75;;;2.20;;
11287;SDS011;5700;50.996;7.044;2023-04-15T00:48:07;3.47;;;1.85;;
11287;SDS011;5700;50.996;7.044;2023-04-15T00:51:10;3.60;;;1.70;;
11287;SDS011;5700;50.996;7.044;2023-04-15T00:54:12;5.85;;;2.08;;
11287;SDS011;5700;50.996;7.044;2023-04-15T00:57:13;2.63;;;1.83;;
11287;SDS011;5700;50.996;7.044;2023-04-15T01:00:15;4.65;;;2.28;;
11287;SDS011;5700;50.996;7.044;2023-04-15T01:03:17;5.38;;;2.33;;
11287;SDS011;5700;50.996;7.044;2023-04-15T01:06:19;10.82;;;2.50;;
11287;SDS011;5700;50.996;7.044;2023-04-15T01:09:21;4.82;;;1.90;;
11287;SDS011;5700;50.996;7.044;2023-04-15T01:12:23;4.05;;;2.03;;
11287;SDS011;5700;50.996;7.044;2023-04-15T01:15:25;5.05;;;2.17;;
11287;SDS011;5700;50.996;7.044;2023-04-15T01:18:26;4.28;;;1.95;;
11287;SDS011;5700;50.996;7.044;2023-04-15T01:21:29;5.38;;;2.20;;
11287;SDS011;5700;50.996;7.044;2023-04-15T01:24:31;5.18;;;2.25;;
11287;SDS011;5700;50.996;7.044;2023-04-15T01:27:34;4.63;;;2.00;;
11287;SDS011;5700;50.996;7.044;2023-04-15T01:30:37;4.43;;;2.13;;
11287;SDS011;5700;50.996;7.044;2023-04-15T01:33:39;5.30;;;2.42;;
11287;SDS011;5700;50.996;7.044;2023-04-15T01:36:41;7.95;;;2.55;;
11287;SDS011;5700;50.996;7.044;2023-04-15T01:39:43;4.82;;;2.67;;
11287;SDS011;5700;50.996;7.044;2023-04-15T01:42:45;6.30;;;3.03;;
11287;SDS011;5700;50.996;7.044;2023-04-15T01:45:47;7.90;;;3.10;;
11287;SDS011;5700;50.996;7.044;2023-04-15T01:48:48;6.90;;;2.28;;
11287;SDS011;5700;50.996;7.044;2023-04-15T01:51:50;4.45;;;2.22;;
11287;SDS011;5700;50.996;7.044;2023-04-15T01:54:51;6.22;;;2.90;;
11287;SDS011;5700;50.996;7.044;2023-04-15T01:57:54;5.65;;;2.30;;
11287;SDS011;5700;50.996;7.044;2023-04-15T02:00:55;7.70;;;2.47;;
11287;SDS011;5700;50.996;7.044;2023-04-15T02:03:57;6.97;;;2.33;;
11287;SDS011;5700;50.996;7.044;2023-04-15T02:06:58;4.45;;;2.03;;
11287;SDS011;5700;50.996;7.044;2023-04-15T02:10:00;7.15;;;2.60;;
11287;SDS011;5700;50.996;7.044;2023-04-15T02:13:03;5.47;;;2.25;;
11287;SDS011;5700;50.996;7.044;2023-04-15T02:16:05;4.50;;;2.17;;
11287;SDS011;5700;50.996;7.044;2023-04-15T02:19:15;4.28;;;2.03;;
11287;SDS011;5700;50.996;7.044;2023-04-15T02:22:17;6.20;;;2.50;;
11287;SDS011;5700;50.996;7.044;2023-04-15T02:25:18;4.15;;;2.15;;
11287;SDS011;5700;50.996;7.044;2023-04-15T02:28:21;5.22;;;2.42;;
11287;SDS011;5700;50.996;7.044;2023-04-15T02:31:23;7.40;;;2.40;;
11287;SDS011;5700;50.996;7.044;2023-04-15T02:34:24;5.82;;;2.75;;
11287;SDS011;5700;50.996;7.044;2023-04-15T02:37:26;9.00;;;2.67;;
11287;SDS011;5700;50.996;7.044;2023-04-15T02:40:29;4.72;;;2.33;;
11287;SDS011;5700;50.996;7.044;2023-04-15T02:43:32;11.30;;;2.38;;
11287;SDS011;5700;50.996;7.044;2023-04-15T02:46:34;8.95;;;2.97;;
11287;SDS011;5700;50.996;7.044;2023-04-15T02:49:35;5.68;;;2.65;;
11287;SDS011;5700;50.996;7.044;2023-04-15T02:52:38;4.15;;;2.17;;
11287;SDS011;5700;50.996;7.044;2023-04-15T02:55:39;5.15;;;2.33;;
11287;SDS011;5700;50.996;7.044;2023-04-15T02:58:43;3.05;;;2.20;;
11287;SDS011;5700;50.996;7.044;2023-04-15T03:01:45;4.05;;;2.20;;
11287;SDS011;5700;50.996;7.044;2023-04-15T03:04:46;6.18;;;2.58;;
11287;SDS011;5700;50.996;7.044;2023-04-15T03:07:47;5.82;;;2.70;;
11287;SDS011;5700;50.996;7.044;2023-04-15T03:10:49;6.35;;;2.58;;
11287;SDS011;5700;50.996;7.044;2023-04-15T03:13:52;3.83;;;2.38;;
11287;SDS011;5700;50.996;7.044;2023-04-15T03:16:54;4.70;;;2.22;;
11287;SDS011;5700;50.996;7.044;2023-04-15T03:19:55;5.97;;;2.72;;
11287;SDS011;5700;50.996;7.044;2023-04-15T03:22:57;7.68;;;2.58;;
11287;SDS011;5700;50.996;7.044;2023-04-15T03:26:00;5.78;;;2.58;;
11287;SDS011;5700;50.996;7.044;2023-04-15T03:29:03;6.63;;;2.33;;
11287;SDS011;5700;50.996;7.044;2023-04-15T03:32:04;5.60;;;2.45;;
11287;SDS011;5700;50.996;7.044;2023-04-15T03:35:06;3.22;;;1.90;;
11287;SDS011;5700;50.996;7.044;2023-04-15T03:38:08;4.38;;;2.42;;
11287;SDS011;5700;50.996;7.044;2023-04-15T03:41:10;4.78;;;2.63;;
11287;SDS011;5700;50.996;7.044;2023-04-15T03:44:13;6.18;;;2.67;;
11287;SDS011;5700;50.996;7.044;2023-04-15T03:47:14;6.43;;;2.92;;
11287;SDS011;5700;50.996;7.044;2023-04-15T03:50:16;4.75;;;2.50;;
11287;SDS011;5700;50.996;7.044;2023-04-15T03:53:17;4.47;;;2.65;;
11287;SDS011;5700;50.996;7.044;2023-04-15T03:56:19;4.78;;;2.50;;
11287;SDS011;5700;50.996;7.044;2023-04-15T03:59:22;6.88;;;2.95;;
11287;SDS011;5700;50.996;7.044;2023-04-15T04:02:23;4.18;;;2.22;;
11287;SDS011;5700;50.996;7.044;2023-04-15T04:05:24;4.43;;;2.53;;
11287;SDS011;5700;50.996;7.044;2023-04-15T04:08:26;4.72;;;2.60;;
11287;SDS011;5700;50.996;7.044;2023-04-15T04:11:27;4.68;;;2.60;;
11287;SDS011;5700;50.996;7.044;2023-04-15T04:14:30;4.97;;;2.50;;
11287;SDS011;5700;50.996;7.044;2023-04-15T04:17:31;5.53;;;2.70;;
11287;SDS011;5700;50.996;7.044;2023-04-15T04:20:33;7.10;;;3.08;;
11287;SDS011;5700;50.996;7.044;2023-04-15T04:23:34;6.15;;;2.58;;
11287;SDS011;5700;50.996;7.044;2023-04-15T04:26:36;4.68;;;2.78;;
11287;SDS011;5700;50.996;7.044;2023-04-15T04:29:38;7.35;;;2.45;;
11287;SDS011;5700;50.996;7.044;2023-04-15T04:32:40;4.57;;;2.45;;
11287;SDS011;5700;50.996;7.044;2023-04-15T04:35:41;4.22;;;2.60;;
11287;SDS011;5700;50.996;7.044;2023-04-15T04:38:43;7.13;;;3.13;;
11287;SDS011;5700;50.996;7.044;2023-04-15T04:41:44;6.15;;;2.88;;
11287;SDS011;5700;50.996;7.044;2023-04-15T04:44:47;7.45;;;3.42;;
11287;SDS011;5700;50.996;7.044;2023-04-15T04:47:48;7.03;;;3.00;;
11287;SDS011;5700;50.996;7.044;2023-04-15T04:50:50;6.05;;;2.90;;
11287;SDS011;5700;50.996;7.044;2023-04-15T04:53:51;5.75;;;2.97;;
11287;SDS011;5700;50.996;7.044;2023-04-15T04:56:52;1.55;;;1.00;;
11287;SDS011;5700;50.996;7.044;2023-04-15T04:59:55;4.82;;;1.95;;
11287;SDS011;5700;50.996;7.044;2023-04-15T05:02:57;3.40;;;1.60;;
11287;SDS011;5700;50.996;7.044;2023-04-15T05:05:58;3.70;;;2.20;;
11287;SDS011;5700;50.996;7.044;2023-04-15T05:09:02;6.05;;;2.28;;
11287;SDS011;5700;50.996;7.044;2023-04-15T05:12:03;5.80;;;2.08;;
11287;SDS011;5700;50.996;7.044;2023-04-15T05:15:06;3.83;;;1.88;;
11287;SDS011;5700;50.996;7.044;2023-04-15T05:18:09;2.03;;;1.50;;
11287;SDS011;5700;50.996;7.044;2023-04-15T05:21:10;2.38;;;1.77;;
11287;SDS011;5700;50.996;7.044;2023-04-15T05:24:12;7.47;;;2.20;;
11287;SDS011;5700;50.996;7.044;2023-04-15T05:27:14;4.82;;;2.03;;
11287;SDS011;5700;50.996;7.044;2023-04-15T05:30:17;5.25;;;1.95;;
11287;SDS011;5700;50.996;7.044;2023-04-15T05:33:18;4.10;;;2.17;;
11287;SDS011;5700;50.996;7.044;2023-04-15T05:36:19;4.78;;;2.50;;
11287;SDS011;5700;50.996;7.044;2023-04-15T05:39:21;3.83;;;2.15;;
11287;SDS011;5700;50.996;7.044;2023-04-15T05:42:22;3.75;;;2.28;;
11287;SDS011;5700;50.996;7.044;2023-04-15T05:45:25;4.53;;;2.47;;
11287;SDS011;5700;50.996;7.044;2023-04-15T05:48:26;4.15;;;2.97;;
11287;SDS011;5700;50.996;7.044;2023-04-15T05:51:28;5.00;;;2.38;;
11287;SDS011;5700;50.996;7.044;2023-04-15T05:54:29;3.58;;;1.90;;
11287;SDS011;5700;50.996;7.044;2023-04-15T05:57:31;7.97;;;3.25;;
11287;SDS011;5700;50.996;7.044;2023-04-15T06:00:35;12.25;;;3.65;;
11287;SDS011;5700;50.996;7.044;2023-04-15T06:03:36;3.28;;;2.05;;
11287;SDS011;5700;50.996;7.044;2023-04-15T06:06:38;6.00;;;2.30;;
11287;SDS011;5700;50.996;7.044;2023-04-15T06:09:40;4.93;;;2.50;;
11287;SDS011;5700;50.996;7.044;2023-04-15T06:12:41;5.07;;;2.25;;
11287;SDS011;5700;50.996;7.044;2023-04-15T06:15:44;4.40;;;2.20;;
11287;SDS011;5700;50.996;7.044;2023-04-15T06:18:45;5.47;;;3.47;;
11287;SDS011;5700;50.996;7.044;2023-04-15T06:21:47;9.63;;;3.03;;
11287;SDS011;5700;50.996;7.044;2023-04-15T06:24:48;5.93;;;3.28;;
11287;SDS011;5700;50.996;7.044;2023-04-15T06:27:50;7.35;;;3.03;;
11287;SDS011;5700;50.996;7.044;2023-04-15T06:30:53;6.88;;;3.17;;
11287;SDS011;5700;50.996;7.044;2023-04-15T06:33:55;5.57;;;2.97;;
11287;SDS011;5700;50.996;7.044;2023-04-15T06:36:56;8.85;;;3.65;;
11287;SDS011;5700;50.996;7.044;2023-04-15T06:39:57;11.88;;;4.65;;
11287;SDS011;5700;50.996;7.044;2023-04-15T06:42:59;6.55;;;3.97;;
11287;SDS011;5700;50.996;7.044;2023-04-15T06:46:02;6.93;;;3.95;;
11287;SDS011;5700;50.996;7.044;2023-04-15T06:49:03;14.00;;;4.65;;
11287;SDS011;5700;50.996;7.044;2023-04-15T06:52:05;6.68;;;3.88;;
11287;SDS011;5700;50.996;7.044;2023-04-15T06:55:07;6.47;;;3.55;;
11287;SDS011;5700;50.996;7.044;2023-04-15T06:58:09;7.57;;;3.35;;
11287;SDS011;5700;50.996;7.044;2023-04-15T07:01:11;12.25;;;3.90;;
11287;SDS011;5700;50.996;7.044;2023-04-15T07:04:14;7.90;;;3.17;;
11287;SDS011;5700;50.996;7.044;2023-04-15T07:07:15;6.80;;;3.85;;
11287;SDS011;5700;50.996;7.044;2023-04-15T07:10:16;8.25;;;3.38;;
11287;SDS011;5700;50.996;7.044;2023-04-15T07:13:18;9.20;;;3.88;;
11287;SDS011;5700;50.996;7.044;2023-04-15T07:16:21;5.80;;;3.13;;
11287;SDS011;5700;50.996;7.044;2023-04-15T07:19:22;8.75;;;3.47;;
11287;SDS011;5700;50.996;7.044;2023-04-15T07:22:24;5.97;;;3.25;;
11287;SDS011;5700;50.996;7.044;2023-04-15T07:25:26;5.78;;;3.20;;
11287;SDS011;5700;50.996;7.044;2023-04-15T07:28:28;5.30;;;2.78;;
11287;SDS011;5700;50.996;7.044;2023-04-15T07:31:30;5.60;;;2.55;;
11287;SDS011;5700;50.996;7.044;2023-04-15T07:34:32;5.88;;;2.75;;
11287;SDS011;5700;50.996;7.044;2023-04-15T07:37:33;5.22;;;2.72;;
11287;SDS011;5700;50.996;7.044;2023-04-15T07:40:35;4.13;;;2.30;;
11287;SDS011;5700;50.996;7.044;2023-04-15T07:43:36;5.10;;;2.28;;
11287;SDS011;5700;50.996;7.044;2023-04-15T07:46:40;5.13;;;2.15;;
11287;SDS011;5700;50.996;7.044;2023-04-15T07:49:41;4.30;;;2.22;;
11287;SDS011;5700;50.996;7.044;2023-04-15T07:52:43;4.00;;;1.85;;
11287;SDS011;5700;50.996;7.044;2023-04-15T07:55:45;5.93;;;2.00;;
11287;SDS011;5700;50.996;7.044;2023-04-15T07:58:46;2.33;;;1.48;;
11287;SDS011;5700;50.996;7.044;2023-04-15T08:01:50;4.78;;;1.85;;
11287;SDS011;5700;50.996;7.044;2023-04-15T08:04:51;2.25;;;1.35;;
11287;SDS011;5700;50.996;7.044;2023-04-15T08:07:53;3.28;;;1.63;;
11287;SDS011;5700;50.996;7.044;2023-04-15T08:10:55;2.83;;;1.23;;
11287;SDS011;5700;50.996;7.044;2023-04-15T08:13:56;3.80;;;1.50;;
11287;SDS011;5700;50.996;7.044;2023-04-15T08:16:59;1.70;;;1.13;;
11287;SDS011;5700;50.996;7.044;2023-04-15T08:20:02;2.10;;;1.20;;
11287;SDS011;5700;50.996;7.044;2023-04-15T08:23:04;2.47;;;1.10;;
11287;SDS011;5700;50.996;7.044;2023-04-15T08:26:06;4.00;;;1.70;;
11287;SDS011;5700;50.996;7.044;2023-04-15T08:29:08;2.58;;;1.60;;
11287;SDS011;5700;50.996;7.044;2023-04-15T08:32:10;2.97;;;1.10;;
11287;SDS011;5700;50.996;7.044;2023-04-15T08:35:12;2.30;;;1.33;;
11287;SDS011;5700;50.996;7.044;2023-04-15T08:38:14;2.88;;;1.48;;
11287;SDS011;5700;50.996;7.044;2023-04-15T08:41:18;3.97;;;1.33;;
11287;SDS011;5700;50.996;7.044;2023-04-15T08:44:22;3.03;;;1.10;;
11287;SDS011;5700;50.996;7.044;2023-04-15T08:47:25;2.85;;;1.00;;
11287;SDS011;5700;50.996;7.044;2023-04-15T08:50:30;2.15;;;1.10;;
11287;SDS011;5700;50.996;7.044;2023-04-15T08:53:32;2.15;;;1.13;;
11287;SDS011;5700;50.996;7.044;2023-04-15T08:56:35;4.18;;;1.38;;
11287;SDS011;5700;50.996;7.044;2023-04-15T08:59:37;2.53;;;1.08;;
11287;SDS011;5700;50.996;7.044;2023-04-15T09:02:40;1.73;;;1.23;;
11287;SDS011;5700;50.996;7.044;2023-04-15T09:05:43;3.63;;;1.30;;
11287;SDS011;5700;50.996;7.044;2023-04-15T09:08:44;2.35;;;1.17;;
11287;SDS011;5700;50.996;7.044;2023-04-15T09:11:46;5.65;;;1.65;;
11287;SDS011;5700;50.996;7.044;2023-04-15T09:14:49;2.97;;;1.65;;
11287;SDS011;5700;50.996;7.044;2023-04-15T09:17:52;2.03;;;1.30;;
11287;SDS011;5700;50.996;7.044;2023-04-15T09:20:53;2.85;;;1.60;;
11287;SDS011;5700;50.996;7.044;2023-04-15T09:23:56;7.60;;;1.98;;
11287;SDS011;5700;50.996;7.044;2023-04-15T09:26:58;3.55;;;1.38;;
11287;SDS011;5700;50.996;7.044;2023-04-15T09:30:01;6.40;;;2.08;;
11287;SDS011;5700;50.996;7.044;2023-04-15T09:33:04;3.72;;;2.10;;
11287;SDS011;5700;50.996;7.044;2023-04-15T09:36:07;2.53;;;1.15;;
11287;SDS011;5700;50.996;7.044;2023-04-15T09:39:08;1.55;;;1.13;;
11287;SDS011;5700;50.996;7.044;2023-04-15T09:42:10;2.47;;;1.23;;
11287;SDS011;5700;50.996;7.044;2023-04-15T09:45:11;2.22;;;1.25;;
11287;SDS011;5700;50.996;7.044;2023-04-15T09:48:16;1.90;;;1.20;;
11287;SDS011;5700;50.996;7.044;2023-04-15T09:51:31;2.67;;;1.33;;
11287;SDS011;5700;50.996;7.044;2023-04-15T09:54:35;3.30;;;1.58;;
11287;SDS011;5700;50.996;7.044;2023-04-15T09:57:38;2.03;;;1.30;;
11287;SDS011;5700;50.996;7.044;2023-04-15T10:00:40;1.77;;;1.33;;
11287;SDS011;5700;50.996;7.044;2023-04-15T10:03:43;3.58;;;1.30;;
11287;SDS011;5700;50.996;7.044;2023-04-15T10:06:45;3.47;;;1.90;;
11287;SDS011;5700;50.996;7.044;2023-04-15T10:09:48;6.57;;;1.77;;
11287;SDS011;5700;50.996;7.044;2023-04-15T10:12:50;3.72;;;1.70;;
11287;SDS011;5700;50.996;7.044;2023-04-15T10:15:55;4.88;;;2.33;;
11287;SDS011;5700;50.996;7.044;2023-04-15T10:19:00;3.25;;;1.92;;
11287;SDS011;5700;50.996;7.044;2023-04-15T10:22:03;3.92;;;1.80;;
11287;SDS011;5700;50.996;7.044;2023-04-15T10:25:05;4.85;;;2.35;;
11287;SDS011;5700;50.996;7.044;2023-04-15T10:28:06;4.00;;;1.92;;
11287;SDS011;5700;50.996;7.044;2023-04-15T10:31:08;3.35;;;1.75;;
11287;SDS011;5700;50.996;7.044;2023-04-15T10:34:13;4.35;;;2.13;;
11287;SDS011;5700;50.996;7.044;2023-04-15T10:37:19;3.42;;;2.10;;
11287;SDS011;5700;50.996;7.044;2023-04-15T10:40:22;3.67;;;1.85;;
11287;SDS011;5700;50.996;7.044;2023-04-15T10:43:26;3.58;;;1.98;;
11287;SDS011;5700;50.996;7.044;2023-04-15T10:46:33;3.88;;;1.92;;
11287;SDS011;5700;50.996;7.044;2023-04-15T10:49:43;3.72;;;1.77;;
11287;SDS011;5700;50.996;7.044;2023-04-15T10:52:49;3.92;;;2.17;;
11287;SDS011;5700;50.996;7.044;2023-04-15T10:55:51;3.95;;;1.98;;
11287;SDS011;5700;50.996;7.044;2023-04-15T10:58:52;2.50;;;1.75;;
11287;SDS011;5700;50.996;7.044;2023-04-15T11:01:55;3.40;;;1.52;;
11287;SDS011;5700;50.996;7.044;2023-04-15T11:05:00;3.13;;;1.52;;
11287;SDS011;5700;50.996;7.044;2023-04-15T11:08:01;3.28;;;1.70;;
11287;SDS011;5700;50.996;7.044;2023-04-15T11:11:04;1.88;;;1.13;;
11287;SDS011;5700;50.996;7.044;2023-04-15T11:14:06;2.83;;;1.77;;
11287;SDS011;5700;50.996;7.044;2023-04-15T11:17:18;2.42;;;1.40;;
11287;SDS011;5700;50.996;7.044;2023-04-15T11:20:29;3.20;;;1.60;;
11287;SDS011;5700;50.996;7.044;2023-04-15T11:23:33;3.72;;;1.75;;
11287;SDS011;5700;50.996;7.044;2023-04-15T11:26:36;2.28;;;1.40;;
11287;SDS011;5700;50.996;7.044;2023-04-15T11:29:37;2.95;;;1.85;;
11287;SDS011;5700;50.996;7.044;2023-04-15T11:32:40;2.80;;;1.63;;
11287;SDS011;5700;50.996;7.044;2023-04-15T11:35:44;2.35;;;1.67;;
11287;SDS011;5700;50.996;7.044;2023-04-15T11:38:46;2.25;;;1.63;;
11287;SDS011;5700;50.996;7.044;2023-04-15T11:41:47;2.97;;;1.73;;
11287;SDS011;5700;50.996;7.044;2023-04-15T11:44:49;2.85;;;1.67;;
11287;SDS011;5700;50.996;7.044;2023-04-15T11:47:50;2.50;;;1.60;;
11287;SDS011;5700;50.996;7.044;2023-04-15T11:50:53;3.13;;;1.83;;
11287;SDS011;5700;50.996;7.044;2023-04-15T11:53:55;2.85;;;1.70;;
11287;SDS011;5700;50.996;7.044;2023-04-15T11:56:57;2.38;;;1.40;;
11287;SDS011;5700;50.996;7.044;2023-04-15T12:00:00;2.50;;;1.40;;
11287;SDS011;5700;50.996;7.044;2023-04-15T12:03:11;2.22;;;1.55;;
11287;SDS011;5700;50.996;7.044;2023-04-15T12:06:16;2.97;;;1.60;;
11287;SDS011;5700;50.996;7.044;2023-04-15T12:09:19;2.67;;;1.80;;
11287;SDS011;5700;50.996;7.044;2023-04-15T12:12:21;2.70;;;1.77;;
11287;SDS011;5700;50.996;7.044;2023-04-15T12:15:23;2.30;;;1.90;;
11287;SDS011;5700;50.996;7.044;2023-04-15T12:18:24;3.20;;;2.33;;
11287;SDS011;5700;50.996;7.044;2023-04-15T12:21:27;4.60;;;2.47;;
11287;SDS011;5700;50.996;7.044;2023-04-15T12:24:35;4.72;;;2.70;;
11287;SDS011;5700;50.996;7.044;2023-04-15T12:27:37;2.53;;;1.50;;
11287;SDS011;5700;50.996;7.044;2023-04-15T12:30:47;2.33;;;1.17;;
11287;SDS011;5700;50.996;7.044;2023-04-15T12:33:49;3.45;;;1.65;;
11287;SDS011;5700;50.996;7.044;2023-04-15T12:36:52;2.47;;;1.60;;
11287;SDS011;5700;50.996;7.044;2023-04-15T12:39:53;2.58;;;1.20;;
11287;SDS011;5700;50.996;7.044;2023-04-15T12:42:54;2.00;;;1.38;;
11287;SDS011;5700;50.996;7.044;2023-04-15T12:45:56;1.92;;;1.25;;
11287;SDS011;5700;50.996;7.044;2023-04-15T12:48:58;2.55;;;1.50;;
11287;SDS011;5700;50.996;7.044;2023-04-15T12:52:01;4.68;;;1.70;;
11287;SDS011;5700;50.996;7.044;2023-04-15T12:55:03;3.10;;;1.67;;
11287;SDS011;5700;50.996;7.044;2023-04-15T12:58:05;3.55;;;2.00;;
11287;SDS011;5700;50.996;7.044;2023-04-15T13:01:07;2.72;;;2.00;;
11287;SDS011;5700;50.996;7.044;2023-04-15T13:04:09;4.30;;;2.63;;
11287;SDS011;5700;50.996;7.044;2023-04-15T13:07:11;3.55;;;2.47;;
11287;SDS011;5700;50.996;7.044;2023-04-15T13:10:14;3.83;;;2.63;;
11287;SDS011;5700;50.996;7.044;2023-04-15T13:13:16;5.88;;;2.92;;
11287;SDS011;5700;50.996;7.044;2023-04-15T13:16:17;5.05;;;3.20;;
11287;SDS011;5700;50.996;7.044;2023-04-15T13:19:19;4.32;;;3.05;;
11287;SDS011;5700;50.996;7.044;2023-04-15T13:22:22;4.10;;;2.53;;
11287;SDS011;5700;50.996;7.044;2023-04-15T13:25:23;6.35;;;3.25;;
11287;SDS011;5700;50.996;7.044;2023-04-15T13:28:26;6.13;;;3.08;;
11287;SDS011;5700;50.996;7.044;2023-04-15T13:31:28;5.35;;;3.22;;
11287;SDS011;5700;50.996;7.044;2023-04-15T13:34:30;8.68;;;3.53;;
11287;SDS011;5700;50.996;7.044;2023-04-15T13:37:32;5.50;;;2.88;;
11287;SDS011;5700;50.996;7.044;2023-04-15T13:40:34;4.70;;;3.00;;
11287;SDS011;5700;50.996;7.044;2023-04-15T13:43:35;4.97;;;3.05;;
11287;SDS011;5700;50.996;7.044;2023-04-15T13:46:37;6.07;;;3.28;;
11287;SDS011;5700;50.996;7.044;2023-04-15T13:49:39;6.75;;;3.00;;
11287;SDS011;5700;50.996;7.044;2023-04-15T13:52:42;6.80;;;3.20;;
11287;SDS011;5700;50.996;7.044;2023-04-15T13:55:43;6.07;;;3.53;;
11287;SDS011;5700;50.996;7.044;2023-04-15T13:58:45;6.93;;;3.33;;
11287;SDS011;5700;50.996;7.044;2023-04-15T14:01:46;6.30;;;3.17;;
11287;SDS011;5700;50.996;7.044;2023-04-15T14:04:48;5.30;;;2.70;;
11287;SDS011;5700;50.996;7.044;2023-04-15T14:07:51;8.20;;;2.90;;
11287;SDS011;5700;50.996;7.044;2023-04-15T14:10:52;4.18;;;2.75;;
11287;SDS011;5700;50.996;7.044;2023-04-15T14:13:54;6.05;;;3.33;;
11287;SDS011;5700;50.996;7.044;2023-04-15T14:16:55;6.53;;;3.53;;
11287;SDS011;5700;50.996;7.044;2023-04-15T14:19:57;5.05;;;2.78;;
11287;SDS011;5700;50.996;7.044;2023-04-15T14:23:00;5.28;;;2.38;;
11287;SDS011;5700;50.996;7.044;2023-04-15T14:26:02;4.20;;;2.60;;
11287;SDS011;5700;50.996;7.044;2023-04-15T14:29:03;4.10;;;2.35;;
11287;SDS011;5700;50.996;7.044;2023-04-15T14:32:05;4.53;;;2.83;;
11287;SDS011;5700;50.996;7.044;2023-04-15T14:35:07;4.18;;;1.98;;
11287;SDS011;5700;50.996;7.044;2023-04-15T14:38:10;4.18;;;2.42;;
11287;SDS011;5700;50.996;7.044;2023-04-15T14:41:11;3.75;;;1.90;;
11287;SDS011;5700;50.996;7.044;2023-04-15T14:44:12;3.88;;;1.92;;
11287;SDS011;5700;50.996;7.044;2023-04-15T14:47:14;3.40;;;1.50;;
11287;SDS011;5700;50.996;7.044;2023-04-15T14:50:16;5.45;;;1.90;;
11287;SDS011;5700;50.996;7.044;2023-04-15T14:53:19;1.90;;;1.30;;
11287;SDS011;5700;50.996;7.044;2023-04-15T14:56:20;4.45;;;1.65;;
11287;SDS011;5700;50.996;7.044;2023-04-15T14:59:22;4.90;;;1.70;;
11287;SDS011;5700;50.996;7.044;2023-04-15T15:02:23;3.05;;;1.70;;
11287;SDS011;5700;50.996;7.044;2023-04-15T15:05:25;3.65;;;1.52;;
11287;SDS011;5700;50.996;7.044;2023-04-15T15:08:27;3.45;;;1.65;;
11287;SDS011;5700;50.996;7.044;2023-04-15T15:11:29;3.17;;;1.77;;
11287;SDS011;5700;50.996;7.044;2023-04-15T15:14:30;2.95;;;1.48;;
11287;SDS011;5700;50.996;7.044;2023-04-15T15:17:32;3.55;;;1.60;;
11287;SDS011;5700;50.996;7.044;2023-04-15T15:20:34;3.00;;;1.55;;
11287;SDS011;5700;50.996;7.044;2023-04-15T15:23:37;2.28;;;1.38;;
11287;SDS011;5700;50.996;7.044;2023-04-15T15:26:38;4.88;;;1.83;;
11287;SDS011;5700;50.996;7.044;2023-04-15T15:29:40;4.25;;;1.88;;
11287;SDS011;5700;50.996;7.044;2023-04-15T15:32:41;3.20;;;1.65;;
11287;SDS011;5700;50.996;7.044;2023-04-15T15:35:43;3.53;;;1.70;;
11287;SDS011;5700;50.996;7.044;2023-04-15T15:38:46;3.72;;;1.75;;
11287;SDS011;5700;50.996;7.044;2023-04-15T15:41:47;3.28;;;1.65;;
11287;SDS011;5700;50.996;7.044;2023-04-15T15:44:49;2.50;;;1.35;;
11287;SDS011;5700;50.996;7.044;2023-04-15T15:47:51;4.05;;;2.08;;
11287;SDS011;5700;50.996;7.044;2023-04-15T15:50:53;3.38;;;1.58;;
11287;SDS011;5700;50.996;7.044;2023-04-15T15:53:56;4.93;;;1.52;;
11287;SDS011;5700;50.996;7.044;2023-04-15T15:56:57;3.55;;;1.45;;
11287;SDS011;5700;50.996;7.044;2023-04-15T15:59:59;2.83;;;1.30;;
11287;SDS011;5700;50.996;7.044;2023-04-15T16:03:00;2.40;;;1.30;;
11287;SDS011;5700;50.996;7.044;2023-04-15T16:06:02;3.13;;;1.73;;
11287;SDS011;5700;50.996;7.044;2023-04-15T16:09:05;3.17;;;1.75;;
11287;SDS011;5700;50.996;7.044;2023-04-15T16:12:06;2.35;;;1.58;;
11287;SDS011;5700;50.996;7.044;2023-04-15T16:15:08;3.58;;;1.73;;
11287;SDS011;5700;50.996;7.044;2023-04-15T16:18:10;2.53;;;1.50;;
11287;SDS011;5700;50.996;7.044;2023-04-15T16:21:12;3.05;;;1.60;;
11287;SDS011;5700;50.996;7.044;2023-04-15T16:24:15;2.75;;;1.40;;
11287;SDS011;5700;50.996;7.044;2023-04-15T16:27:17;4.15;;;1.90;;
11287;SDS011;5700;50.996;7.044;2023-04-15T16:30:18;3.95;;;1.33;;
11287;SDS011;5700;50.996;7.044;2023-04-15T16:33:20;4.00;;;2.42;;
11287;SDS011;5700;50.996;7.044;2023-04-15T16:36:22;3.72;;;2.50;;
11287;SDS011;5700;50.996;7.044;2023-04-15T16:39:25;4.57;;;2.72;;
11287;SDS011;5700;50.996;7.044;2023-04-15T16:42:26;4.53;;;2.47;;
11287;SDS011;5700;50.996;7.044;2023-04-15T16:45:27;6.85;;;2.83;;
11287;SDS011;5700;50.996;7.044;2023-04-15T16:48:29;4.13;;;2.63;;
11287;SDS011;5700;50.996;7.044;2023-04-15T16:51:30;6.13;;;3.13;;
11287;SDS011;5700;50.996;7.044;2023-04-15T16:54:33;5.88;;;2.97;;
11287;SDS011;5700;50.996;7.044;2023-04-15T16:57:40;6.05;;;2.97;;
11287;SDS011;5700;50.996;7.044;2023-04-15T17:00:41;6.13;;;3.25;;
11287;SDS011;5700;50.996;7.044;2023-04-15T17:03:43;6.25;;;3.65;;
11287;SDS011;5700;50.996;7.044;2023-04-15T17:06:46;6.93;;;4.20;;
11287;SDS011;5700;50.996;7.044;2023-04-15T17:09:49;6.13;;;3.25;;
11287;SDS011;5700;50.996;7.044;2023-04-15T17:12:51;6.88;;;4.28;;
11287;SDS011;5700;50.996;7.044;2023-04-15T17:15:52;8.80;;;4.50;;
11287;SDS011;5700;50.996;7.044;2023-04-15T17:18:54;9.48;;;4.75;;
11287;SDS011;5700;50.996;7.044;2023-04-15T17:21:55;8.20;;;4.60;;
11287;SDS011;5700;50.996;7.044;2023-04-15T17:24:58;9.13;;;5.53;;
11287;SDS011;5700;50.996;7.044;2023-04-15T17:28:00;8.00;;;5.00;;
11287;SDS011;5700;50.996;7.044;2023-04-15T17:31:02;10.65;;;4.90;;
11287;SDS011;5700;50.996;7.044;2023-04-15T17:34:03;7.22;;;4.50;;
11287;SDS011;5700;50.996;7.044;2023-04-15T17:37:05;8.07;;;4.55;;
11287;SDS011;5700;50.996;7.044;2023-04-15T17:40:08;8.57;;;4.85;;
11287;SDS011;5700;50.996;7.044;2023-04-15T17:43:10;7.40;;;3.75;;
11287;SDS011;5700;50.996;7.044;2023-04-15T17:46:11;9.75;;;4.75;;
11287;SDS011;5700;50.996;7.044;2023-04-15T17:49:13;9.10;;;4.80;;
11287;SDS011;5700;50.996;7.044;2023-04-15T17:52:15;9.05;;;6.05;;
11287;SDS011;5700;50.996;7.044;2023-04-15T17:55:18;9.63;;;5.65;;
11287;SDS011;5700;50.996;7.044;2023-04-15T17:58:21;10.10;;;6.25;;
11287;SDS011;5700;50.996;7.044;2023-04-15T18:01:22;8.85;;;5.10;;
11287;SDS011;5700;50.996;7.044;2023-04-15T18:04:23;10.35;;;5.82;;
11287;SDS011;5700;50.996;7.044;2023-04-15T18:07:25;11.45;;;6.47;;
11287;SDS011;5700;50.996;7.044;2023-04-15T18:10:28;10.93;;;6.60;;
11287;SDS011;5700;50.996;7.044;2023-04-15T18:13:29;10.27;;;7.22;;
11287;SDS011;5700;50.996;7.044;2023-04-15T18:16:31;11.70;;;7.25;;
11287;SDS011;5700;50.996;7.044;2023-04-15T18:19:32;11.40;;;7.30;;
11287;SDS011;5700;50.996;7.044;2023-04-15T18:22:33;17.25;;;8.02;;
11287;SDS011;5700;50.996;7.044;2023-04-15T18:25:37;11.40;;;7.82;;
11287;SDS011;5700;50.996;7.044;2023-04-15T18:28:38;11.02;;;7.97;;
11287;SDS011;5700;50.996;7.044;2023-04-15T18:31:39;12.27;;;6.70;;
11287;SDS011;5700;50.996;7.044;2023-04-15T18:34:41;11.57;;;7.05;;